createdAt,value
2023-04-23T00:00:18.587Z,63.6390
2023-04-23T00:01:20.002Z,63.7030
2023-04-23T00:02:21.433Z,63.7912
2023-04-23T00:03:22.972Z,63.8674
2023-04-23T00:04:24.571Z,63.8940
2023-04-23T00:05:26.029Z,63.9616
2023-04-23T00:06:27.382Z,64.0710
2023-04-23T00:07:28.913Z,64.1711
2023-04-23T00:08:30.342Z,64.2689
2023-04-23T00:09:31.751Z,64.3744
2023-04-23T00:10:33.134Z,64.4466
2023-04-23T00:11:34.519Z,64.5196
2023-04-23T00:12:35.948Z,64.6273
2023-04-23T00:13:37.357Z,64.7435
2023-04-23T00:14:38.991Z,64.7486
2023-04-23T00:15:40.608Z,64.7995
2023-04-23T00:16:41.959Z,64.8960
2023-04-23T00:17:43.347Z,65.0329
2023-04-23T00:18:44.703Z,65.2344
2023-04-23T00:19:46.204Z,65.1610
2023-04-23T00:20:47.652Z,65.2411
2023-04-23T00:21:48.970Z,65.6789
2023-04-23T00:22:50.307Z,65.8533
2023-04-23T00:23:51.682Z,65.7707
2023-04-23T00:24:53.313Z,66.4444
2023-04-23T00:25:54.642Z,66.5059
2023-04-23T00:26:56.075Z,67.5852
2023-04-23T00:27:57.468Z,68.1425
2023-04-23T00:28:58.820Z,67.9975
2023-04-23T00:30:00.184Z,68.0488
2023-04-23T00:31:01.531Z,67.9688
2023-04-23T00:32:02.945Z,67.9868
2023-04-23T00:33:04.329Z,68.0137
2023-04-23T00:34:05.694Z,68.2020
2023-04-23T00:35:07.053Z,68.2916
2023-04-23T00:36:08.446Z,68.7299
2023-04-23T00:37:09.806Z,69.1264
2023-04-23T00:38:11.160Z,69.2378
2023-04-23T00:39:12.524Z,69.1845
2023-04-23T00:40:13.933Z,69.1176
2023-04-23T00:41:15.277Z,69.3200
2023-04-23T00:42:16.682Z,69.4411
2023-04-23T00:43:18.028Z,69.6477
2023-04-23T00:44:19.397Z,70.0961
2023-04-23T00:45:20.771Z,70.0240
2023-04-23T00:46:22.268Z,70.0212
2023-04-23T00:47:23.677Z,70.2383
2023-04-23T00:48:25.023Z,70.2564
2023-04-23T00:49:26.478Z,70.2898
2023-04-23T00:50:27.797Z,70.1540
2023-04-23T00:51:29.182Z,70.1916
2023-04-23T00:52:30.552Z,70.3780
2023-04-23T00:53:31.910Z,70.5131
2023-04-23T00:54:33.310Z,70.5214
2023-04-23T00:55:34.687Z,70.5026
2023-04-23T00:56:36.063Z,70.5430
2023-04-23T00:57:37.415Z,70.6777
2023-04-23T00:58:38.819Z,70.8586
2023-04-23T00:59:40.174Z,70.9930
2023-04-23T01:00:41.521Z,71.0990
2023-04-23T01:01:42.904Z,71.1560
2023-04-23T01:02:44.516Z,71.1807
2023-04-23T01:03:46.146Z,71.2668
2023-04-23T01:04:47.573Z,71.3038
2023-04-23T01:05:48.935Z,71.4779
2023-04-23T01:06:50.291Z,71.6414
2023-04-23T01:07:51.649Z,71.7881
2023-04-23T01:08:53.007Z,72.0070
2023-04-23T01:09:54.349Z,72.0405
2023-04-23T01:10:55.872Z,72.0802
2023-04-23T01:11:57.242Z,72.1452
2023-04-23T01:12:58.636Z,72.2207
2023-04-23T01:13:59.980Z,72.3727
2023-04-23T01:15:01.424Z,72.5555
2023-04-23T01:16:02.724Z,72.9003
2023-04-23T01:17:04.160Z,73.2494
2023-04-23T01:18:05.523Z,73.4103
2023-04-23T01:19:06.881Z,73.5730
2023-04-23T01:20:08.267Z,73.7237
2023-04-23T01:21:09.582Z,74.1646
2023-04-23T01:22:10.947Z,74.4215
2023-04-23T01:23:12.309Z,74.4829
2023-04-23T01:24:13.728Z,74.6872
2023-04-23T01:25:15.099Z,74.7883
2023-04-23T01:26:16.477Z,74.9537
2023-04-23T01:27:17.918Z,75.1950
2023-04-23T01:28:19.302Z,75.2526
2023-04-23T01:29:20.748Z,75.3593
2023-04-23T01:30:22.118Z,75.6299
2023-04-23T01:31:23.637Z,75.8846
2023-04-23T01:32:25.429Z,76.0082
2023-04-23T01:33:26.766Z,76.1168
2023-04-23T01:34:28.157Z,76.1142
2023-04-23T01:35:29.537Z,76.1871
2023-04-23T01:36:30.902Z,76.2523
2023-04-23T01:37:32.299Z,76.3371
2023-04-23T01:38:33.655Z,76.4665
2023-04-23T01:39:35.048Z,76.5102
2023-04-23T01:40:36.388Z,76.5111
2023-04-23T01:41:37.802Z,76.5497
2023-04-23T01:42:39.119Z,76.6257
2023-04-23T01:43:40.487Z,76.6466
2023-04-23T01:44:42.205Z,76.7291
2023-04-23T01:45:43.738Z,76.7871
2023-04-23T01:46:45.104Z,76.8811
2023-04-23T01:47:46.532Z,76.9449
2023-04-23T01:48:47.882Z,76.9777
2023-04-23T01:49:49.238Z,77.0167
2023-04-23T01:50:50.646Z,77.0431
2023-04-23T01:51:52.012Z,77.0730
2023-04-23T01:52:53.363Z,77.1291
2023-04-23T01:53:54.726Z,77.2084
2023-04-23T01:54:56.152Z,77.2722
2023-04-23T01:55:57.509Z,77.4129
2023-04-23T01:56:58.961Z,77.5358
2023-04-23T01:58:00.319Z,77.6070
2023-04-23T01:59:01.680Z,77.6498
2023-04-23T02:00:03.056Z,77.6407
2023-04-23T02:01:04.408Z,77.6726
2023-04-23T02:02:05.920Z,77.7163
2023-04-23T02:03:07.462Z,77.7525
2023-04-23T02:04:08.970Z,78.1741
2023-04-23T02:06:12.008Z,78.3647
2023-04-23T02:06:12.008Z,78.1599
2023-04-23T02:07:13.383Z,78.1410
2023-04-23T02:08:14.743Z,78.1305
2023-04-23T02:09:16.094Z,78.1642
2023-04-23T02:10:17.481Z,78.1971
2023-04-23T02:11:18.840Z,78.2408
2023-04-23T02:12:20.193Z,78.2932
2023-04-23T02:13:21.550Z,78.3623
2023-04-23T02:14:22.918Z,78.4491
2023-04-23T02:15:24.246Z,78.5776
2023-04-23T02:16:25.668Z,78.7048
2023-04-23T02:17:27.174Z,78.7398
2023-04-23T02:18:28.515Z,78.7775
2023-04-23T02:19:29.908Z,78.8136
2023-04-23T02:20:31.244Z,78.8635
2023-04-23T02:21:32.593Z,78.9085
2023-04-23T02:22:33.979Z,79.0231
2023-04-23T02:23:35.554Z,79.0957
2023-04-23T02:24:36.889Z,79.1613
2023-04-23T02:25:38.258Z,79.2290
2023-04-23T02:26:39.610Z,79.3622
2023-04-23T02:27:40.974Z,79.4229
2023-04-23T02:28:42.368Z,79.4670
2023-04-23T02:29:43.765Z,79.5380
2023-04-23T02:30:45.316Z,79.8363
2023-04-23T02:31:46.688Z,79.9822
2023-04-23T02:32:48.058Z,80.0054
2023-04-23T02:33:49.386Z,80.0159
2023-04-23T02:34:50.979Z,80.0037
2023-04-23T02:35:52.325Z,80.0203
2023-04-23T02:36:53.746Z,80.1124
2023-04-23T02:37:55.126Z,80.2856
2023-04-23T02:38:56.491Z,80.5137
2023-04-23T02:39:57.888Z,80.7951
2023-04-23T02:40:59.251Z,80.7752
2023-04-23T02:42:00.639Z,80.7362
2023-04-23T02:43:02.010Z,80.6636
2023-04-23T02:44:03.390Z,80.5876
2023-04-23T02:45:04.765Z,80.5234
2023-04-23T02:46:06.150Z,80.4795
2023-04-23T02:47:07.668Z,80.5543
2023-04-23T02:48:09.085Z,80.8826
2023-04-23T02:49:10.407Z,81.0104
2023-04-23T02:50:11.773Z,81.0807
2023-04-23T02:51:13.164Z,81.1903
2023-04-23T02:52:14.770Z,81.1140
2023-04-23T02:53:16.090Z,81.0771
2023-04-23T02:54:17.438Z,81.1057
2023-04-23T02:55:18.796Z,81.1151
2023-04-23T02:56:20.190Z,81.1112
2023-04-23T02:57:21.580Z,81.1271
2023-04-23T02:58:23.186Z,81.1502
2023-04-23T02:59:24.552Z,81.1691
2023-04-23T03:00:25.919Z,81.1919
2023-04-23T03:01:27.418Z,81.1968
2023-04-23T03:02:28.961Z,81.1897
2023-04-23T03:03:30.752Z,81.1834
2023-04-23T03:04:32.116Z,81.1893
2023-04-23T03:05:33.491Z,81.1959
2023-04-23T03:06:34.865Z,81.1922
2023-04-23T03:07:36.224Z,81.1889
2023-04-23T03:08:37.622Z,81.1940
2023-04-23T03:09:39.001Z,81.1983
2023-04-23T03:10:40.370Z,81.2116
2023-04-23T03:11:41.761Z,81.2200
2023-04-23T03:12:43.108Z,81.2241
2023-04-23T03:13:44.470Z,81.2214
2023-04-23T03:14:45.848Z,81.2242
2023-04-23T03:15:47.271Z,81.2366
2023-04-23T03:16:48.672Z,81.2413
2023-04-23T03:17:50.048Z,81.2312
2023-04-23T03:18:51.394Z,81.2418
2023-04-23T03:19:52.913Z,81.2453
2023-04-23T03:20:54.270Z,81.2466
2023-04-23T03:21:55.656Z,81.2639
2023-04-23T03:22:57.034Z,81.2746
2023-04-23T03:23:58.419Z,81.2825
2023-04-23T03:24:59.798Z,81.2900
2023-04-23T03:26:01.150Z,81.2969
2023-04-23T03:27:02.605Z,81.2981
2023-04-23T03:28:03.925Z,81.2993
2023-04-23T03:29:05.265Z,81.3293
2023-04-23T03:30:06.640Z,81.3239
2023-04-23T03:31:08.124Z,81.3158
2023-04-23T03:32:09.507Z,81.3253
2023-04-23T03:33:10.884Z,81.3442
2023-04-23T03:34:12.245Z,81.3641
2023-04-23T03:35:13.594Z,81.3642
2023-04-23T03:36:15.096Z,81.3636
2023-04-23T03:37:16.469Z,81.3782
2023-04-23T03:38:17.830Z,81.3992
2023-04-23T03:39:19.196Z,81.4072
2023-04-23T03:40:20.593Z,81.4138
2023-04-23T03:41:21.997Z,81.4201
2023-04-23T03:42:23.344Z,81.4669
2023-04-23T03:43:24.818Z,81.6056
2023-04-23T03:44:26.140Z,81.6839
2023-04-23T03:45:27.485Z,81.5924
2023-04-23T03:46:28.849Z,81.5722
2023-04-23T03:47:30.220Z,81.5964
2023-04-23T03:48:31.549Z,81.6379
2023-04-23T03:49:33.149Z,81.6974
2023-04-23T03:50:34.529Z,81.7432
2023-04-23T03:51:35.878Z,81.7701
2023-04-23T03:52:37.259Z,81.9019
2023-04-23T03:53:38.641Z,81.9497
2023-04-23T03:54:40.103Z,81.9808
2023-04-23T03:55:41.671Z,82.0709
2023-04-23T03:56:43.042Z,82.2990
2023-04-23T03:57:44.393Z,82.3888
2023-04-23T03:58:45.778Z,82.3821
2023-04-23T03:59:47.134Z,82.5737
2023-04-23T04:00:48.497Z,82.7661
2023-04-23T04:01:49.872Z,82.8020
2023-04-23T04:02:51.355Z,82.8024
2023-04-23T04:03:53.005Z,82.8026
2023-04-23T04:04:54.784Z,82.8053
2023-04-23T04:05:56.366Z,82.8625
2023-04-23T04:06:57.754Z,82.9310
2023-04-23T04:07:59.089Z,82.9863
2023-04-23T04:09:00.448Z,83.0898
2023-04-23T04:10:01.833Z,83.3758
2023-04-23T04:11:03.281Z,83.5847
2023-04-23T04:12:04.642Z,83.5466
2023-04-23T04:13:06.031Z,83.5812
2023-04-23T04:14:07.385Z,83.7411
2023-04-23T04:15:08.726Z,83.8850
2023-04-23T04:16:10.199Z,83.9672
2023-04-23T04:17:11.504Z,83.9964
2023-04-23T04:18:12.851Z,83.9634
2023-04-23T04:19:14.406Z,84.0109
2023-04-23T04:20:15.732Z,84.0407
2023-04-23T04:21:17.075Z,84.0402
2023-04-23T04:22:18.620Z,84.1202
2023-04-23T04:23:19.934Z,84.2501
2023-04-23T04:24:22.166Z,84.2530
2023-04-23T04:25:24.466Z,84.2069
2023-04-23T04:26:25.843Z,84.1655
2023-04-23T04:27:27.221Z,84.1826
2023-04-23T04:28:28.667Z,84.2482
2023-04-23T04:29:29.959Z,84.2750
2023-04-23T04:30:31.302Z,84.2837
2023-04-23T04:31:34.432Z,84.3169
2023-04-23T04:32:35.789Z,84.3249
2023-04-23T04:33:37.100Z,84.3195
2023-04-23T04:34:38.567Z,84.3327
2023-04-23T04:35:39.921Z,84.3524
2023-04-23T04:36:41.261Z,84.3709
2023-04-23T04:37:42.611Z,84.3904
2023-04-23T04:38:43.982Z,84.4352
2023-04-23T04:39:45.323Z,84.4598
2023-04-23T04:40:46.671Z,84.4577
2023-04-23T04:41:48.265Z,84.4275
2023-04-23T04:42:49.646Z,84.4556
2023-04-23T04:43:51.010Z,84.4780
2023-04-23T04:44:52.421Z,84.4592
2023-04-23T04:45:53.776Z,84.4923
2023-04-23T04:46:55.215Z,84.5185
2023-04-23T04:47:56.597Z,84.5362
2023-04-23T04:48:57.953Z,84.5591
2023-04-23T04:49:59.297Z,84.5465
2023-04-23T04:51:00.652Z,84.5654
2023-04-23T04:52:02.020Z,84.5637
2023-04-23T04:53:03.363Z,84.5776
2023-04-23T04:54:04.739Z,84.6146
2023-04-23T04:55:06.079Z,84.6312
2023-04-23T04:56:07.427Z,84.6276
2023-04-23T04:57:08.773Z,84.6155
2023-04-23T04:58:10.136Z,84.6149
2023-04-23T04:59:11.539Z,84.6278
2023-04-23T05:00:12.877Z,84.6433
2023-04-23T05:01:14.263Z,84.6662
2023-04-23T05:02:15.687Z,84.6824
2023-04-23T05:03:17.209Z,84.6894
2023-04-23T05:04:18.721Z,84.6914
2023-04-23T05:05:20.227Z,84.7036
2023-04-23T05:06:21.622Z,84.7045
2023-04-23T05:07:22.997Z,84.7055
2023-04-23T05:08:24.352Z,84.7307
2023-04-23T05:09:25.907Z,84.7216
2023-04-23T05:10:27.267Z,84.7243
2023-04-23T05:11:28.632Z,84.7145
2023-04-23T05:12:30.019Z,84.7155
2023-04-23T05:13:31.382Z,84.7308
2023-04-23T05:14:32.707Z,84.7341
2023-04-23T05:15:34.084Z,84.7426
2023-04-23T05:16:35.523Z,84.7522
2023-04-23T05:17:36.854Z,84.7595
2023-04-23T05:18:38.193Z,84.7706
2023-04-23T05:19:39.604Z,84.7718
2023-04-23T05:20:40.967Z,84.7783
2023-04-23T05:21:42.322Z,84.7767
2023-04-23T05:22:43.708Z,84.7862
2023-04-23T05:23:45.120Z,84.7753
2023-04-23T05:24:46.505Z,84.7704
2023-04-23T05:25:47.921Z,84.7726
2023-04-23T05:26:49.387Z,84.7862
2023-04-23T05:27:50.785Z,84.7830
2023-04-23T05:28:52.218Z,84.7774
2023-04-23T05:29:53.625Z,84.7837
2023-04-23T05:30:55.032Z,84.7845
2023-04-23T05:31:56.497Z,84.7807
2023-04-23T05:32:57.901Z,84.7794
2023-04-23T05:33:59.399Z,84.7823
2023-04-23T05:35:00.797Z,84.7951
2023-04-23T05:36:02.187Z,84.8111
2023-04-23T05:37:03.582Z,84.8318
2023-04-23T05:38:05.006Z,84.8278
2023-04-23T05:39:06.419Z,84.8292
2023-04-23T05:40:07.811Z,84.8369
2023-04-23T05:41:09.208Z,84.8521
2023-04-23T05:42:10.643Z,84.8563
2023-04-23T05:43:12.061Z,84.8651
2023-04-23T05:44:13.470Z,84.8626
2023-04-23T05:45:14.878Z,84.8600
2023-04-23T05:46:16.320Z,84.8558
2023-04-23T05:47:17.714Z,84.8650
2023-04-23T05:48:19.125Z,84.8648
2023-04-23T05:49:20.524Z,84.8954
2023-04-23T05:50:21.954Z,84.9050
2023-04-23T05:51:23.340Z,84.8869
2023-04-23T05:52:24.725Z,84.8674
2023-04-23T05:53:26.134Z,84.8682
2023-04-23T05:54:27.500Z,84.8684
2023-04-23T05:55:28.881Z,84.8509
2023-04-23T05:56:30.264Z,84.8456
2023-04-23T05:57:31.659Z,84.8440
2023-04-23T05:58:33.300Z,84.8451
2023-04-23T05:59:34.681Z,84.8460
2023-04-23T06:00:36.070Z,84.8544
2023-04-23T06:01:37.486Z,84.8487
2023-04-23T06:02:38.927Z,84.8410
2023-04-23T06:03:40.568Z,84.8359
2023-04-23T06:04:42.555Z,84.8240
2023-04-23T06:05:44.362Z,84.8188
2023-04-23T06:06:47.658Z,84.8028
2023-04-23T06:07:49.073Z,84.8010
2023-04-23T06:08:50.478Z,84.7871
2023-04-23T06:09:51.876Z,84.7741
2023-04-23T06:10:53.279Z,84.7579
2023-04-23T06:11:54.691Z,84.7427
2023-04-23T06:12:56.180Z,84.7342
2023-04-23T06:13:57.586Z,84.7219
2023-04-23T06:14:59.001Z,84.7191
2023-04-23T06:16:00.454Z,84.7151
2023-04-23T06:17:01.857Z,84.7179
2023-04-23T06:18:03.382Z,84.7500
2023-04-23T06:19:04.812Z,84.7357
2023-04-23T06:20:06.240Z,84.7184
2023-04-23T06:21:07.685Z,84.7217
2023-04-23T06:22:09.106Z,84.7141
2023-04-23T06:23:10.491Z,84.6968
2023-04-23T06:24:11.924Z,84.6838
2023-04-23T06:25:13.350Z,84.6720
2023-04-23T06:26:15.115Z,84.6577
2023-04-23T06:27:16.549Z,84.6451
2023-04-23T06:28:17.914Z,84.6286
2023-04-23T06:29:19.379Z,84.6244
2023-04-23T06:30:20.768Z,84.6213
2023-04-23T06:31:22.221Z,84.6360
2023-04-23T06:32:23.699Z,84.6407
2023-04-23T06:33:25.297Z,84.6341
2023-04-23T06:34:26.685Z,84.6210
2023-04-23T06:35:28.076Z,84.5878
2023-04-23T06:36:29.581Z,84.5465
2023-04-23T06:37:31.049Z,84.4959
2023-04-23T06:38:32.522Z,84.4785
2023-04-23T06:39:33.899Z,84.4746
2023-04-23T06:40:35.316Z,84.4705
2023-04-23T06:41:36.742Z,84.4573
2023-04-23T06:42:38.159Z,84.3908
2023-04-23T06:43:39.597Z,84.3299
2023-04-23T06:44:41.146Z,84.2452
2023-04-23T06:45:42.936Z,84.1248
2023-04-23T06:46:44.349Z,84.0331
2023-04-23T06:47:45.793Z,83.9502
2023-04-23T06:48:47.187Z,83.8683
2023-04-23T06:49:48.582Z,83.8854
2023-04-23T06:50:49.986Z,83.8323
2023-04-23T06:51:51.498Z,83.7341
2023-04-23T06:52:52.865Z,83.5601
2023-04-23T06:53:54.309Z,83.4205
2023-04-23T06:54:55.728Z,83.2050
2023-04-23T06:55:57.140Z,82.9153
2023-04-23T06:56:58.563Z,82.6094
2023-04-23T06:58:00.013Z,82.3578
2023-04-23T06:59:01.463Z,82.1864
2023-04-23T07:00:02.967Z,82.1833
2023-04-23T07:01:04.441Z,82.2271
2023-04-23T07:02:05.919Z,82.2491
2023-04-23T07:03:07.498Z,82.2290
2023-04-23T07:04:09.043Z,82.3147
2023-04-23T07:05:10.485Z,82.4237
2023-04-23T07:06:12.044Z,82.4998
2023-04-23T07:07:13.492Z,82.6224
2023-04-23T07:08:14.950Z,82.6646
2023-04-23T07:09:16.374Z,82.6885
2023-04-23T07:10:18.253Z,82.7061
2023-04-23T07:11:19.750Z,82.7596
2023-04-23T07:12:21.101Z,82.8959
2023-04-23T07:13:22.524Z,83.0316
2023-04-23T07:14:23.947Z,83.1207
2023-04-23T07:15:25.353Z,83.2250
2023-04-23T07:16:26.809Z,83.1975
2023-04-23T07:17:28.228Z,83.1018
2023-04-23T07:18:29.634Z,82.6874
2023-04-23T07:19:31.027Z,82.2317
2023-04-23T07:20:32.831Z,81.9539
2023-04-23T07:21:34.188Z,81.6568
2023-04-23T07:22:35.621Z,81.0515
2023-04-23T07:23:37.036Z,80.9618
2023-04-23T07:24:38.452Z,80.5755
2023-04-23T07:25:39.909Z,80.2183
2023-04-23T07:26:41.332Z,79.8805
2023-04-23T07:27:42.752Z,78.7573
2023-04-23T07:28:44.212Z,78.4093
2023-04-23T07:29:45.615Z,78.3150
2023-04-23T07:30:47.074Z,78.1459
2023-04-23T07:31:48.513Z,78.1201
2023-04-23T07:32:50.207Z,77.8581
2023-04-23T07:33:51.571Z,77.5522
2023-04-23T07:34:52.969Z,77.6236
2023-04-23T07:35:54.385Z,77.6130
2023-04-23T07:36:55.795Z,77.4192
2023-04-23T07:37:57.192Z,77.1813
2023-04-23T07:38:58.612Z,77.0405
2023-04-23T07:40:00.101Z,76.8968
2023-04-23T07:41:01.542Z,76.6396
2023-04-23T07:42:03.060Z,75.7862
2023-04-23T07:43:04.486Z,75.0958
2023-04-23T07:53:13.772Z,74.8545
2023-04-23T07:53:13.772Z,74.1546
2023-04-23T07:53:44.602Z,70.8357
2023-04-23T07:54:46.460Z,70.8882
2023-04-23T07:55:47.902Z,70.7447
2023-04-23T07:56:49.311Z,70.9279
2023-04-23T07:57:50.809Z,71.0981
2023-04-23T07:58:52.545Z,71.0279
2023-04-23T07:59:54.493Z,70.9634
2023-04-23T08:00:55.937Z,70.3919
2023-04-23T08:01:57.378Z,70.2802
2023-04-23T08:02:58.910Z,69.8053
2023-04-23T08:04:00.806Z,69.4358
2023-04-23T08:05:02.543Z,69.1441
2023-04-23T08:06:04.079Z,68.3984
2023-04-23T08:07:05.571Z,68.1467
2023-04-23T08:08:07.270Z,68.0198
2023-04-23T08:09:08.702Z,68.0643
2023-04-23T08:10:10.212Z,67.5405
2023-04-23T08:11:11.701Z,67.8173
2023-04-23T08:12:13.201Z,67.3699
2023-04-23T08:13:14.912Z,66.4848
2023-04-23T08:14:16.432Z,66.2796
2023-04-23T08:15:17.866Z,65.7721
2023-04-23T08:16:19.377Z,65.4445
2023-04-23T08:17:20.933Z,65.4651
2023-04-23T08:18:22.664Z,63.9359
2023-04-23T08:19:24.123Z,63.2990
2023-04-23T08:20:25.652Z,63.3931
2023-04-23T08:21:27.114Z,63.5445
2023-04-23T08:22:28.599Z,63.2834
2023-04-23T08:23:30.054Z,62.9507
2023-04-23T08:24:31.481Z,63.0378
2023-04-23T08:25:32.960Z,63.2283
2023-04-23T08:26:34.483Z,63.3940
2023-04-23T08:27:35.893Z,63.0253
2023-04-23T08:28:37.368Z,62.8193
2023-04-23T08:29:38.890Z,62.6798
2023-04-23T08:30:40.408Z,62.6306
2023-04-23T08:31:41.859Z,62.3559
2023-04-23T08:32:43.453Z,61.1511
2023-04-23T08:33:44.842Z,60.9758
2023-04-23T08:34:46.237Z,60.8512
2023-04-23T08:35:47.644Z,60.7266
2023-04-23T08:36:49.219Z,60.7176
2023-04-23T08:37:50.591Z,60.7874
2023-04-23T08:38:52.005Z,60.9044
2023-04-23T08:39:53.411Z,60.9966
2023-04-23T08:40:54.839Z,61.2155
2023-04-23T08:41:56.295Z,61.3548
2023-04-23T08:42:57.705Z,61.2082
2023-04-23T08:43:59.161Z,60.5015
2023-04-23T08:45:00.599Z,60.6747
2023-04-23T08:46:02.042Z,59.9847
2023-04-23T08:47:03.692Z,60.0239
2023-04-23T08:48:05.247Z,59.6921
2023-04-23T08:49:06.653Z,59.7891
2023-04-23T08:50:08.126Z,59.2210
2023-04-23T08:51:09.551Z,58.7779
2023-04-23T08:52:10.993Z,58.7266
2023-04-23T08:53:12.442Z,58.5379
2023-04-23T08:54:13.867Z,57.2230
2023-04-23T08:55:15.308Z,56.3371
2023-04-23T08:56:16.749Z,55.9646
2023-04-23T08:57:18.204Z,56.4541
2023-04-23T08:58:19.601Z,56.7265
2023-04-23T08:59:21.135Z,56.8576
2023-04-23T09:00:22.657Z,56.9859
2023-04-23T09:01:24.131Z,57.0738
2023-04-23T09:02:25.651Z,56.8268
2023-04-23T09:03:27.265Z,56.8210
2023-04-23T09:04:28.698Z,56.6785
2023-04-23T09:05:30.126Z,56.5726
2023-04-23T09:06:31.552Z,56.5251
2023-04-23T09:07:33.034Z,56.5787
2023-04-23T09:08:34.496Z,56.9071
2023-04-23T09:09:35.909Z,56.9149
2023-04-23T09:10:37.325Z,56.9865
2023-04-23T09:11:38.763Z,56.8801
2023-04-23T09:12:40.146Z,56.6084
2023-04-23T09:13:41.600Z,56.1883
2023-04-23T09:14:43.254Z,55.7910
2023-04-23T09:15:44.883Z,55.5604
2023-04-23T09:16:46.460Z,55.6167
2023-04-23T09:17:47.994Z,55.3417
2023-04-23T09:18:49.386Z,55.3056
2023-04-23T09:19:50.782Z,54.5204
2023-04-23T09:20:52.231Z,52.9615
2023-04-23T09:21:53.646Z,53.3300
2023-04-23T09:22:55.075Z,54.0830
2023-04-23T09:23:56.513Z,54.4519
2023-04-23T09:24:57.925Z,54.4199
2023-04-23T09:25:59.377Z,54.5344
2023-04-23T09:27:00.807Z,54.3900
2023-04-23T09:28:02.246Z,54.3196
2023-04-23T09:29:03.643Z,54.3909
2023-04-23T09:30:05.024Z,54.0737
2023-04-23T09:31:06.439Z,54.0241
2023-04-23T09:32:07.889Z,53.4517
2023-04-23T09:33:09.386Z,53.6387
2023-04-23T09:34:10.742Z,53.9545
2023-04-23T09:35:12.164Z,53.9625
2023-04-23T09:36:13.593Z,53.9669
2023-04-23T09:37:14.969Z,53.7722
2023-04-23T09:38:16.397Z,53.3392
2023-04-23T09:39:17.849Z,53.1797
2023-04-23T09:40:19.326Z,52.6887
2023-04-23T09:41:20.701Z,52.1500
2023-04-23T09:42:22.114Z,52.1012
2023-04-23T09:43:23.528Z,51.6833
2023-04-23T09:44:24.955Z,50.6635
2023-04-23T09:45:26.378Z,50.3915
2023-04-23T09:46:27.861Z,50.3039
2023-04-23T09:47:29.310Z,50.2072
2023-04-23T09:48:30.724Z,50.1292
2023-04-23T09:49:32.150Z,50.2360
2023-04-23T09:50:33.552Z,49.7989
2023-04-23T09:51:34.961Z,49.3949
2023-04-23T09:52:36.368Z,48.6763
2023-04-23T09:53:39.770Z,48.3366
2023-04-23T09:54:38.116Z,48.3276
2023-04-23T09:55:39.799Z,48.5668
2023-04-23T09:56:41.400Z,48.7547
2023-04-23T09:57:43.029Z,48.6213
2023-04-23T09:58:44.439Z,47.9662
2023-04-23T09:59:51.526Z,48.2883
2023-04-23T10:00:45.949Z,47.7837
2023-04-23T10:01:47.463Z,47.2918
2023-04-23T10:02:49.051Z,47.0478
2023-04-23T10:03:50.594Z,46.7393
2023-04-23T10:04:52.217Z,46.3787
2023-04-23T10:06:01.235Z,46.5137
2023-04-23T10:07:13.829Z,46.0119
2023-04-23T10:07:55.107Z,43.9293
2023-04-23T10:08:56.568Z,43.4932
2023-04-23T10:09:57.970Z,43.6936
2023-04-23T10:11:13.755Z,44.6749
2023-04-23T10:11:59.526Z,45.3540
2023-04-23T10:13:00.962Z,45.3964
2023-04-23T10:14:02.394Z,45.1668
2023-04-23T10:15:03.804Z,45.7045
2023-04-23T10:16:18.604Z,45.5758
2023-04-23T10:17:05.867Z,46.3461
2023-04-23T10:18:07.415Z,46.6697
2023-04-23T10:19:08.801Z,46.9164
2023-04-23T10:20:10.235Z,47.0282
2023-04-23T10:23:15.425Z,45.5309
2023-04-23T10:24:16.804Z,46.2428
2023-04-23T10:25:18.222Z,45.8266
2023-04-23T10:26:19.598Z,46.1765
2023-04-23T10:27:28.557Z,45.9342
2023-04-23T10:28:21.137Z,45.6016
2023-04-23T10:29:22.518Z,45.8121
2023-04-23T10:30:23.960Z,46.1255
2023-04-23T10:31:25.373Z,46.3787
2023-04-23T10:32:26.817Z,46.4877
2023-04-23T10:33:30.818Z,46.4696
2023-04-23T10:34:28.334Z,46.3561
2023-04-23T10:35:29.713Z,46.5568
2023-04-23T10:36:31.125Z,46.8071
2023-04-23T10:37:32.544Z,46.8266
2023-04-23T10:38:33.959Z,46.7003
2023-04-23T10:39:35.371Z,46.7789
2023-04-23T10:40:36.781Z,46.6992
2023-04-23T10:41:38.206Z,46.5396
2023-04-23T10:42:39.630Z,46.8036
2023-04-23T10:43:41.026Z,46.9277
2023-04-23T10:44:56.680Z,46.8385
2023-04-23T10:45:42.652Z,46.9115
2023-04-23T10:46:44.059Z,46.9294
2023-04-23T10:47:45.417Z,46.8769
2023-04-23T10:48:46.813Z,46.7516
2023-04-23T10:49:48.563Z,46.5760
2023-04-23T10:51:06.895Z,46.3061
2023-04-23T10:52:50.784Z,45.5925
2023-04-23T10:53:52.228Z,44.9397
2023-04-23T10:54:53.623Z,44.8306
2023-04-23T10:55:55.026Z,44.9546
2023-04-23T10:56:56.429Z,44.9694
2023-04-23T10:58:00.598Z,44.8027
2023-04-23T10:58:59.218Z,44.7251
2023-04-23T11:00:00.604Z,44.6062
2023-04-23T11:01:02.018Z,44.4963
2023-04-23T11:02:03.435Z,44.5857
2023-04-23T11:03:04.940Z,44.5165
2023-04-23T11:04:06.583Z,44.5242
2023-04-23T11:05:08.168Z,44.8001
2023-04-23T11:06:09.591Z,45.0380
2023-04-23T11:07:11.917Z,44.9226
2023-04-23T11:08:19.224Z,45.0300
2023-04-23T11:09:13.447Z,45.2351
2023-04-23T11:10:14.948Z,45.2165
2023-04-23T11:11:16.517Z,44.7217
2023-04-23T11:12:17.934Z,43.9674
2023-04-23T11:13:19.353Z,43.3609
2023-04-23T11:14:20.783Z,42.8785
2023-04-23T11:15:22.181Z,42.7640
2023-04-23T11:16:23.650Z,42.1910
2023-04-23T11:17:25.073Z,42.1418
2023-04-23T11:18:26.500Z,41.7588
2023-04-23T11:19:27.916Z,40.8503
2023-04-23T11:20:29.341Z,40.7419
2023-04-23T11:21:31.138Z,40.7002
2023-04-23T11:22:32.572Z,40.4819
2023-04-23T11:23:33.992Z,39.9682
2023-04-23T11:24:35.407Z,39.8925
2023-04-23T11:25:36.849Z,39.8389
2023-04-23T11:26:38.252Z,39.7885
2023-04-23T11:27:39.668Z,38.9894
2023-04-23T11:28:41.128Z,37.8501
2023-04-23T11:29:42.891Z,37.2999
2023-04-23T11:30:44.571Z,36.8891
2023-04-23T11:32:00.811Z,36.0754
2023-04-23T11:32:53.726Z,35.8275
2023-04-23T11:33:55.135Z,35.7973
2023-04-23T11:34:56.592Z,35.1828
2023-04-23T11:35:57.978Z,35.2890
2023-04-23T11:36:59.391Z,34.9088
2023-04-23T11:38:00.813Z,35.5695
2023-04-23T11:39:02.230Z,35.7818
2023-04-23T11:40:03.642Z,35.1604
2023-04-23T11:41:05.093Z,35.5360
2023-04-23T11:42:06.863Z,35.0988
2023-04-23T11:43:08.281Z,35.1343
2023-04-23T11:44:09.697Z,35.1240
2023-04-23T11:45:11.119Z,34.5894
2023-04-23T11:46:12.553Z,33.8392
2023-04-23T11:47:13.993Z,33.8595
2023-04-23T11:48:15.384Z,33.4347
2023-04-23T11:49:16.776Z,33.3854
2023-04-23T11:50:18.199Z,33.4895
2023-04-23T11:51:19.640Z,32.5593
2023-04-23T11:52:21.057Z,32.0742
2023-04-23T11:53:22.454Z,31.9207
2023-04-23T11:54:23.862Z,31.9814
2023-04-23T11:55:25.591Z,31.7983
2023-04-23T11:56:27.020Z,31.8082
2023-04-23T11:57:28.477Z,31.7482
2023-04-23T11:58:29.909Z,32.2397
2023-04-23T11:59:31.362Z,31.6194
2023-04-23T12:00:32.779Z,31.7738
2023-04-23T12:01:34.234Z,31.7187
2023-04-23T12:02:35.848Z,31.7593
2023-04-23T12:03:37.449Z,31.0162
2023-04-23T12:04:41.105Z,30.8053
2023-04-23T12:05:39.384Z,30.4574
2023-04-23T12:06:41.006Z,30.3828
2023-04-23T12:07:42.417Z,30.7499
2023-04-23T12:08:43.874Z,30.7129
2023-04-23T12:09:47.091Z,31.0828
2023-04-23T12:10:48.571Z,31.0387
2023-04-23T12:11:50.008Z,30.6514
2023-04-23T12:12:51.482Z,30.3378
2023-04-23T12:13:52.895Z,30.1366
2023-04-23T12:14:54.367Z,28.6971
2023-04-23T12:15:55.838Z,28.2854
2023-04-23T12:16:57.279Z,28.2921
2023-04-23T12:17:58.745Z,28.7889
2023-04-23T12:19:00.165Z,28.2655
2023-04-23T12:20:01.622Z,27.6560
2023-04-23T12:21:03.072Z,27.9147
2023-04-23T12:22:04.550Z,28.3087
2023-04-23T12:23:05.954Z,28.0139
2023-04-23T12:24:07.383Z,27.2482
2023-04-23T12:25:08.827Z,27.3590
2023-04-23T12:26:10.365Z,27.3855
2023-04-23T12:27:11.805Z,27.6528
2023-04-23T12:28:13.267Z,27.7760
2023-04-23T12:29:14.717Z,28.2125
2023-04-23T12:30:16.180Z,28.2745
2023-04-23T12:31:17.634Z,27.7590
2023-04-23T12:32:19.176Z,27.6795
2023-04-23T12:33:20.658Z,27.3877